sensor_id;sensor_type;location;lat;lon;timestamp;pressure;altitude;pressure_sealevel;temperature;humidity
51452;BME280;37521;52.020;-1.740;2022-12-29T00:01:31;97461.66;;;5.80;100.00
51452;BME280;37521;52.020;-1.740;2022-12-29T00:04:00;97474.84;;;5.79;100.00
51452;BME280;37521;52.020;-1.740;2022-12-29T00:06:28;97461.75;;;5.79;100.00
51452;BME280;37521;52.020;-1.740;2022-12-29T00:08:57;97459.25;;;5.77;100.00
51452;BME280;37521;52.020;-1.740;2022-12-29T00:11:26;97468.88;;;5.77;100.00
51452;BME280;37521;52.020;-1.740;2022-12-29T00:13:55;97449.63;;;5.78;100.00
51452;BME280;37521;52.020;-1.740;2022-12-29T00:16:43;97445.31;;;5.77;100.00
51452;BME280;37521;52.020;-1.740;2022-12-29T00:19:12;97441.88;;;5.76;100.00
51452;BME280;37521;52.020;-1.740;2022-12-29T00:21:54;97441.53;;;5.68;100.00
51452;BME280;37521;52.020;-1.740;2022-12-29T00:24:40;97442.41;;;5.68;100.00
51452;BME280;37521;52.020;-1.740;2022-12-29T00:27:26;97453.47;;;5.72;100.00
51452;BME280;37521;52.020;-1.740;2022-12-29T00:30:15;97438.50;;;5.74;100.00
51452;BME280;37521;52.020;-1.740;2022-12-29T00:33:09;97438.59;;;5.72;100.00
51452;BME280;37521;52.020;-1.740;2022-12-29T00:35:57;97434.84;;;5.64;100.00
51452;BME280;37521;52.020;-1.740;2022-12-29T00:38:28;97440.25;;;5.61;100.00
51452;BME280;37521;52.020;-1.740;2022-12-29T00:41:14;97433.47;;;5.71;100.00
51452;BME280;37521;52.020;-1.740;2022-12-29T00:44:00;97416.00;;;5.71;100.00
51452;BME280;37521;52.020;-1.740;2022-12-29T00:46:37;97424.16;;;5.67;100.00
51452;BME280;37521;52.020;-1.740;2022-12-29T00:49:09;97416.41;;;5.65;100.00
51452;BME280;37521;52.020;-1.740;2022-12-29T00:51:56;97422.28;;;5.69;100.00
51452;BME280;37521;52.020;-1.740;2022-12-29T00:54:25;97427.19;;;5.61;100.00
51452;BME280;37521;52.020;-1.740;2022-12-29T00:56:54;97419.00;;;5.53;100.00
51452;BME280;37521;52.020;-1.740;2022-12-29T00:59:22;97419.13;;;5.51;100.00
51452;BME280;37521;52.020;-1.740;2022-12-29T01:01:52;97411.38;;;5.50;100.00
51452;BME280;37521;52.020;-1.740;2022-12-29T01:04:24;97417.03;;;5.43;100.00
51452;BME280;37521;52.020;-1.740;2022-12-29T01:06:53;97418.69;;;5.44;100.00
51452;BME280;37521;52.020;-1.740;2022-12-29T01:09:21;97404.47;;;5.49;100.00
51452;BME280;37521;52.020;-1.740;2022-12-29T01:12:08;97416.41;;;5.53;100.00
51452;BME280;37521;52.020;-1.740;2022-12-29T01:14:37;97383.84;;;5.57;100.00
51452;BME280;37521;52.020;-1.740;2022-12-29T01:17:06;97403.84;;;5.58;100.00
51452;BME280;37521;52.020;-1.740;2022-12-29T01:19:36;97390.63;;;5.59;100.00
51452;BME280;37521;52.020;-1.740;2022-12-29T01:22:04;97394.84;;;5.62;100.00
51452;BME280;37521;52.020;-1.740;2022-12-29T01:24:33;97381.94;;;5.59;100.00
51452;BME280;37521;52.020;-1.740;2022-12-29T01:27:01;97397.34;;;5.51;100.00
51452;BME280;37521;52.020;-1.740;2022-12-29T01:29:29;97401.09;;;5.46;100.00
51452;BME280;37521;52.020;-1.740;2022-12-29T01:31:57;97390.03;;;5.43;100.00
51452;BME280;37521;52.020;-1.740;2022-12-29T01:34:26;97377.88;;;5.42;100.00
51452;BME280;37521;52.020;-1.740;2022-12-29T01:36:56;97396.81;;;5.45;100.00
51452;BME280;37521;52.020;-1.740;2022-12-29T01:39:24;97397.53;;;5.47;100.00
51452;BME280;37521;52.020;-1.740;2022-12-29T01:41:52;97397.66;;;5.46;100.00
51452;BME280;37521;52.020;-1.740;2022-12-29T01:47:31;97400.25;;;5.46;100.00
51452;BME280;37521;52.020;-1.740;2022-12-29T01:50:05;97397.75;;;5.44;100.00
51452;BME280;37521;52.020;-1.740;2022-12-29T01:52:38;97398.59;;;5.45;100.00
51452;BME280;37521;52.020;-1.740;2022-12-29T01:55:08;97412.41;;;5.47;100.00
51452;BME280;37521;52.020;-1.740;2022-12-29T01:57:41;97399.00;;;5.52;100.00
51452;BME280;37521;52.020;-1.740;2022-12-29T02:00:13;97412.81;;;5.54;100.00
51452;BME280;37521;52.020;-1.740;2022-12-29T02:02:47;97412.81;;;5.54;100.00
51452;BME280;37521;52.020;-1.740;2022-12-29T02:05:22;97420.16;;;5.61;100.00
51452;BME280;37521;52.020;-1.740;2022-12-29T02:07:53;97418.41;;;5.62;100.00
51452;BME280;37521;52.020;-1.740;2022-12-29T02:10:24;97409.81;;;5.60;100.00
51452;BME280;37521;52.020;-1.740;2022-12-29T02:12:55;97417.66;;;5.60;100.00
51452;BME280;37521;52.020;-1.740;2022-12-29T02:15:32;97429.59;;;5.64;100.00
51452;BME280;37521;52.020;-1.740;2022-12-29T02:18:13;97432.34;;;5.62;100.00
51452;BME280;37521;52.020;-1.740;2022-12-29T02:21:05;97451.69;;;5.60;100.00
51452;BME280;37521;52.020;-1.740;2022-12-29T02:26:49;97436.09;;;5.58;100.00
51452;BME280;37521;52.020;-1.740;2022-12-29T02:29:49;97431.38;;;5.63;100.00
51452;BME280;37521;52.020;-1.740;2022-12-29T02:32:30;97432.13;;;5.65;100.00
51452;BME280;37521;52.020;-1.740;2022-12-29T02:35:10;97427.53;;;5.69;100.00
51452;BME280;37521;52.020;-1.740;2022-12-29T02:37:51;97427.06;;;5.75;100.00
51452;BME280;37521;52.020;-1.740;2022-12-29T02:40:29;97426.66;;;5.81;100.00
51452;BME280;37521;52.020;-1.740;2022-12-29T02:43:06;97430.03;;;5.83;100.00
51452;BME280;37521;52.020;-1.740;2022-12-29T02:45:43;97424.69;;;5.85;100.00
51452;BME280;37521;52.020;-1.740;2022-12-29T02:48:22;97420.16;;;5.74;100.00
51452;BME280;37521;52.020;-1.740;2022-12-29T02:50:58;97411.16;;;5.53;100.00
51452;BME280;37521;52.020;-1.740;2022-12-29T02:53:30;97420.03;;;5.37;100.00
51452;BME280;37521;52.020;-1.740;2022-12-29T02:56:18;97419.19;;;5.24;100.00
51452;BME280;37521;52.020;-1.740;2022-12-29T02:58:46;97416.03;;;5.19;100.00
51452;BME280;37521;52.020;-1.740;2022-12-29T03:01:24;97431.09;;;5.15;100.00
51452;BME280;37521;52.020;-1.740;2022-12-29T03:04:11;97440.91;;;5.12;100.00
51452;BME280;37521;52.020;-1.740;2022-12-29T03:06:52;97439.22;;;5.11;100.00
51452;BME280;37521;52.020;-1.740;2022-12-29T03:09:30;97441.84;;;5.11;100.00
51452;BME280;37521;52.020;-1.740;2022-12-29T03:12:11;97454.72;;;5.14;100.00
51452;BME280;37521;52.020;-1.740;2022-12-29T03:14:52;97439.78;;;5.16;100.00
51452;BME280;37521;52.020;-1.740;2022-12-29T03:17:50;97451.19;;;5.15;100.00
51452;BME280;37521;52.020;-1.740;2022-12-29T03:20:23;97458.38;;;5.11;100.00
51452;BME280;37521;52.020;-1.740;2022-12-29T03:22:58;97483.47;;;5.14;100.00
51452;BME280;37521;52.020;-1.740;2022-12-29T03:25:33;97504.97;;;5.19;100.00
51452;BME280;37521;52.020;-1.740;2022-12-29T03:28:11;97486.66;;;5.19;100.00
51452;BME280;37521;52.020;-1.740;2022-12-29T03:30:45;97495.53;;;5.16;100.00
51452;BME280;37521;52.020;-1.740;2022-12-29T03:33:21;97509.63;;;5.14;100.00
51452;BME280;37521;52.020;-1.740;2022-12-29T03:35:57;97518.63;;;5.10;100.00
51452;BME280;37521;52.020;-1.740;2022-12-29T03:38:34;97522.19;;;5.09;100.00
51452;BME280;37521;52.020;-1.740;2022-12-29T03:41:11;97526.59;;;5.08;100.00
51452;BME280;37521;52.020;-1.740;2022-12-29T03:43:41;97541.63;;;5.05;100.00
51452;BME280;37521;52.020;-1.740;2022-12-29T03:46:09;97540.13;;;5.01;100.00
51452;BME280;37521;52.020;-1.740;2022-12-29T03:48:40;97550.41;;;5.04;100.00
51452;BME280;37521;52.020;-1.740;2022-12-29T03:51:10;97549.69;;;5.02;100.00
51452;BME280;37521;52.020;-1.740;2022-12-29T03:53:38;97560.41;;;4.97;100.00
51452;BME280;37521;52.020;-1.740;2022-12-29T03:56:07;97566.19;;;4.88;100.00
51452;BME280;37521;52.020;-1.740;2022-12-29T03:58:36;97579.03;;;4.78;100.00
51452;BME280;37521;52.020;-1.740;2022-12-29T04:01:08;97580.13;;;4.74;100.00
51452;BME280;37521;52.020;-1.740;2022-12-29T04:03:38;97582.22;;;4.69;100.00
51452;BME280;37521;52.020;-1.740;2022-12-29T04:06:07;97605.81;;;4.68;100.00
51452;BME280;37521;52.020;-1.740;2022-12-29T04:08:43;97598.72;;;4.70;100.00
51452;BME280;37521;52.020;-1.740;2022-12-29T04:11:11;97616.81;;;4.73;100.00
51452;BME280;37521;52.020;-1.740;2022-12-29T04:13:41;97617.56;;;4.75;100.00
51452;BME280;37521;52.020;-1.740;2022-12-29T04:16:13;97629.53;;;4.79;100.00
51452;BME280;37521;52.020;-1.740;2022-12-29T04:18:42;97631.19;;;4.80;100.00
51452;BME280;37521;52.020;-1.740;2022-12-29T04:21:11;97632.97;;;4.79;100.00
51452;BME280;37521;52.020;-1.740;2022-12-29T04:23:41;97638.94;;;4.81;100.00
51452;BME280;37521;52.020;-1.740;2022-12-29T04:26:13;97639.88;;;4.80;100.00
51452;BME280;37521;52.020;-1.740;2022-12-29T04:28:59;97661.56;;;4.82;100.00
51452;BME280;37521;52.020;-1.740;2022-12-29T04:31:46;97662.41;;;4.83;100.00
51452;BME280;37521;52.020;-1.740;2022-12-29T04:34:14;97668.47;;;4.83;100.00
51452;BME280;37521;52.020;-1.740;2022-12-29T04:36:46;97675.53;;;4.81;100.00
51452;BME280;37521;52.020;-1.740;2022-12-29T04:39:14;97673.81;;;4.82;100.00
51452;BME280;37521;52.020;-1.740;2022-12-29T04:41:44;97687.88;;;4.79;100.00
51452;BME280;37521;52.020;-1.740;2022-12-29T04:44:17;97692.53;;;4.74;100.00
51452;BME280;37521;52.020;-1.740;2022-12-29T04:46:59;97688.44;;;4.70;100.00
51452;BME280;37521;52.020;-1.740;2022-12-29T04:49:39;97696.75;;;4.62;100.00
51452;BME280;37521;52.020;-1.740;2022-12-29T04:52:30;97701.50;;;4.56;100.00
51452;BME280;37521;52.020;-1.740;2022-12-29T04:54:58;97706.22;;;4.49;100.00
51452;BME280;37521;52.020;-1.740;2022-12-29T04:57:28;97714.13;;;4.48;100.00
51452;BME280;37521;52.020;-1.740;2022-12-29T04:59:58;97724.44;;;4.51;100.00
51452;BME280;37521;52.020;-1.740;2022-12-29T05:02:27;97739.91;;;4.54;100.00
51452;BME280;37521;52.020;-1.740;2022-12-29T05:04:56;97738.06;;;4.56;100.00
51452;BME280;37521;52.020;-1.740;2022-12-29T05:07:25;97748.53;;;4.56;100.00
51452;BME280;37521;52.020;-1.740;2022-12-29T05:09:54;97758.50;;;4.49;100.00
51452;BME280;37521;52.020;-1.740;2022-12-29T05:12:23;97765.66;;;4.46;100.00
51452;BME280;37521;52.020;-1.740;2022-12-29T05:14:59;97778.56;;;4.49;100.00
51452;BME280;37521;52.020;-1.740;2022-12-29T05:17:30;97773.16;;;4.52;100.00
51452;BME280;37521;52.020;-1.740;2022-12-29T05:19:59;97772.97;;;4.55;100.00
51452;BME280;37521;52.020;-1.740;2022-12-29T05:22:29;97773.88;;;4.54;100.00
51452;BME280;37521;52.020;-1.740;2022-12-29T05:24:57;97793.88;;;4.55;100.00
51452;BME280;37521;52.020;-1.740;2022-12-29T05:27:26;97786.94;;;4.54;100.00
51452;BME280;37521;52.020;-1.740;2022-12-29T05:30:05;97801.06;;;4.51;100.00
51452;BME280;37521;52.020;-1.740;2022-12-29T05:32:34;97810.66;;;4.51;100.00
51452;BME280;37521;52.020;-1.740;2022-12-29T05:35:03;97817.56;;;4.52;100.00
51452;BME280;37521;52.020;-1.740;2022-12-29T05:37:32;97819.25;;;4.53;100.00
51452;BME280;37521;52.020;-1.740;2022-12-29T05:40:02;97834.00;;;4.54;100.00
51452;BME280;37521;52.020;-1.740;2022-12-29T05:42:31;97842.50;;;4.57;100.00
51452;BME280;37521;52.020;-1.740;2022-12-29T05:45:19;97834.47;;;4.60;100.00
51452;BME280;37521;52.020;-1.740;2022-12-29T05:47:57;97841.50;;;4.60;100.00
51452;BME280;37521;52.020;-1.740;2022-12-29T05:50:46;97847.16;;;4.52;100.00
51452;BME280;37521;52.020;-1.740;2022-12-29T05:53:17;97861.41;;;4.47;100.00
51452;BME280;37521;52.020;-1.740;2022-12-29T05:55:47;97876.31;;;4.45;100.00
51452;BME280;37521;52.020;-1.740;2022-12-29T05:58:16;97873.53;;;4.48;100.00
51452;BME280;37521;52.020;-1.740;2022-12-29T06:00:48;97881.38;;;4.48;100.00
51452;BME280;37521;52.020;-1.740;2022-12-29T06:03:16;97893.69;;;4.46;100.00
51452;BME280;37521;52.020;-1.740;2022-12-29T06:05:44;97888.66;;;4.43;100.00
51452;BME280;37521;52.020;-1.740;2022-12-29T06:08:15;97898.31;;;4.41;100.00
51452;BME280;37521;52.020;-1.740;2022-12-29T06:10:43;97903.88;;;4.34;100.00
51452;BME280;37521;52.020;-1.740;2022-12-29T06:13:12;97906.84;;;4.28;100.00
51452;BME280;37521;52.020;-1.740;2022-12-29T06:15:43;97912.31;;;4.24;100.00
51452;BME280;37521;52.020;-1.740;2022-12-29T06:18:13;97920.72;;;4.13;100.00
51452;BME280;37521;52.020;-1.740;2022-12-29T06:20:46;97928.88;;;4.07;100.00
51452;BME280;37521;52.020;-1.740;2022-12-29T06:23:17;97931.22;;;3.96;100.00
51452;BME280;37521;52.020;-1.740;2022-12-29T06:25:47;97928.94;;;3.90;100.00
51452;BME280;37521;52.020;-1.740;2022-12-29T06:28:16;97941.16;;;3.89;100.00
51452;BME280;37521;52.020;-1.740;2022-12-29T06:30:45;97942.13;;;3.87;100.00
51452;BME280;37521;52.020;-1.740;2022-12-29T06:33:16;97947.38;;;3.87;100.00
51452;BME280;37521;52.020;-1.740;2022-12-29T06:35:45;97949.41;;;3.81;100.00
51452;BME280;37521;52.020;-1.740;2022-12-29T06:38:14;97958.13;;;3.80;100.00
51452;BME280;37521;52.020;-1.740;2022-12-29T06:40:43;97966.88;;;3.79;100.00
51452;BME280;37521;52.020;-1.740;2022-12-29T06:43:30;97980.72;;;3.81;100.00
51452;BME280;37521;52.020;-1.740;2022-12-29T06:46:17;97977.84;;;3.86;100.00
51452;BME280;37521;52.020;-1.740;2022-12-29T06:48:47;97982.31;;;3.84;100.00
51452;BME280;37521;52.020;-1.740;2022-12-29T06:51:15;97986.84;;;3.80;100.00
51452;BME280;37521;52.020;-1.740;2022-12-29T06:53:44;97985.47;;;3.73;100.00
51452;BME280;37521;52.020;-1.740;2022-12-29T06:56:12;98000.38;;;3.71;100.00
51452;BME280;37521;52.020;-1.740;2022-12-29T06:58:40;98001.06;;;3.75;100.00
51452;BME280;37521;52.020;-1.740;2022-12-29T07:01:08;97998.72;;;3.86;100.00
51452;BME280;37521;52.020;-1.740;2022-12-29T07:03:36;98003.41;;;3.97;100.00
51452;BME280;37521;52.020;-1.740;2022-12-29T07:06:06;98007.72;;;3.98;100.00
51452;BME280;37521;52.020;-1.740;2022-12-29T07:08:34;98015.63;;;3.96;100.00
51452;BME280;37521;52.020;-1.740;2022-12-29T07:11:03;98020.16;;;3.93;100.00
51452;BME280;37521;52.020;-1.740;2022-12-29T07:13:31;98022.13;;;3.88;100.00
51452;BME280;37521;52.020;-1.740;2022-12-29T07:15:59;98017.09;;;3.85;100.00
51452;BME280;37521;52.020;-1.740;2022-12-29T07:18:28;98026.81;;;3.81;100.00
51452;BME280;37521;52.020;-1.740;2022-12-29T07:20:56;98033.22;;;3.75;100.00
51452;BME280;37521;52.020;-1.740;2022-12-29T07:23:25;98026.28;;;3.74;100.00
51452;BME280;37521;52.020;-1.740;2022-12-29T07:25:59;98035.06;;;3.73;100.00
51452;BME280;37521;52.020;-1.740;2022-12-29T07:28:27;98043.66;;;3.75;100.00
51452;BME280;37521;52.020;-1.740;2022-12-29T07:30:55;98037.59;;;3.75;100.00
51452;BME280;37521;52.020;-1.740;2022-12-29T07:33:23;98032.06;;;3.81;100.00
51452;BME280;37521;52.020;-1.740;2022-12-29T07:35:52;98025.53;;;3.90;100.00
51452;BME280;37521;52.020;-1.740;2022-12-29T07:38:20;98041.88;;;3.93;100.00
51452;BME280;37521;52.020;-1.740;2022-12-29T07:40:49;98032.13;;;3.97;100.00
51452;BME280;37521;52.020;-1.740;2022-12-29T07:43:18;98042.28;;;4.03;100.00
51452;BME280;37521;52.020;-1.740;2022-12-29T07:46:03;98041.34;;;4.04;100.00
51452;BME280;37521;52.020;-1.740;2022-12-29T07:48:31;98045.63;;;4.05;100.00
51452;BME280;37521;52.020;-1.740;2022-12-29T07:51:01;98055.25;;;4.04;100.00
51452;BME280;37521;52.020;-1.740;2022-12-29T07:53:29;98053.69;;;4.00;100.00
51452;BME280;37521;52.020;-1.740;2022-12-29T07:55:58;98059.84;;;3.99;100.00
51452;BME280;37521;52.020;-1.740;2022-12-29T07:58:27;98064.41;;;3.96;100.00
51452;BME280;37521;52.020;-1.740;2022-12-29T08:00:55;98065.16;;;3.98;100.00
51452;BME280;37521;52.020;-1.740;2022-12-29T08:03:23;98071.44;;;3.94;100.00
51452;BME280;37521;52.020;-1.740;2022-12-29T08:05:52;98079.44;;;3.91;100.00
51452;BME280;37521;52.020;-1.740;2022-12-29T08:08:21;98083.91;;;3.89;100.00
51452;BME280;37521;52.020;-1.740;2022-12-29T08:10:49;98083.97;;;3.87;100.00
51452;BME280;37521;52.020;-1.740;2022-12-29T08:13:19;98084.25;;;3.81;100.00
51452;BME280;37521;52.020;-1.740;2022-12-29T08:15:47;98093.09;;;3.78;100.00
51452;BME280;37521;52.020;-1.740;2022-12-29T08:18:15;98094.94;;;3.76;100.00
51452;BME280;37521;52.020;-1.740;2022-12-29T08:20:43;98095.72;;;3.78;100.00
51452;BME280;37521;52.020;-1.740;2022-12-29T08:23:16;98114.75;;;3.80;100.00
51452;BME280;37521;52.020;-1.740;2022-12-29T08:25:45;98118.75;;;3.88;100.00
51452;BME280;37521;52.020;-1.740;2022-12-29T08:28:13;98116.84;;;3.91;100.00
51452;BME280;37521;52.020;-1.740;2022-12-29T08:30:42;98129.72;;;3.94;100.00
51452;BME280;37521;52.020;-1.740;2022-12-29T08:33:11;98122.44;;;4.01;100.00
51452;BME280;37521;52.020;-1.740;2022-12-29T08:35:39;98131.91;;;4.03;100.00
51452;BME280;37521;52.020;-1.740;2022-12-29T08:38:08;98123.84;;;4.08;100.00
51452;BME280;37521;52.020;-1.740;2022-12-29T08:40:38;98127.97;;;4.12;100.00
51452;BME280;37521;52.020;-1.740;2022-12-29T08:43:06;98128.06;;;4.10;100.00
51452;BME280;37521;52.020;-1.740;2022-12-29T08:45:35;98138.50;;;4.10;100.00
51452;BME280;37521;52.020;-1.740;2022-12-29T08:48:04;98132.56;;;4.07;100.00
51452;BME280;37521;52.020;-1.740;2022-12-29T08:50:33;98138.81;;;4.04;100.00
51452;BME280;37521;52.020;-1.740;2022-12-29T08:53:01;98147.66;;;4.02;100.00
51452;BME280;37521;52.020;-1.740;2022-12-29T08:55:29;98149.97;;;4.08;100.00
51452;BME280;37521;52.020;-1.740;2022-12-29T08:57:58;98151.34;;;4.15;100.00
51452;BME280;37521;52.020;-1.740;2022-12-29T09:00:26;98155.47;;;4.19;100.00
51452;BME280;37521;52.020;-1.740;2022-12-29T09:02:56;98162.31;;;4.22;100.00
51452;BME280;37521;52.020;-1.740;2022-12-29T09:05:26;98162.00;;;4.28;100.00
51452;BME280;37521;52.020;-1.740;2022-12-29T09:07:54;98154.84;;;4.31;100.00
51452;BME280;37521;52.020;-1.740;2022-12-29T09:10:22;98157.47;;;4.31;100.00
51452;BME280;37521;52.020;-1.740;2022-12-29T09:12:51;98158.78;;;4.23;100.00
51452;BME280;37521;52.020;-1.740;2022-12-29T09:15:19;98171.53;;;4.12;100.00
51452;BME280;37521;52.020;-1.740;2022-12-29T09:17:47;98169.97;;;4.07;100.00
51452;BME280;37521;52.020;-1.740;2022-12-29T09:20:17;98170.97;;;4.05;100.00
51452;BME280;37521;52.020;-1.740;2022-12-29T09:22:47;98172.00;;;4.02;100.00
51452;BME280;37521;52.020;-1.740;2022-12-29T09:25:15;98174.66;;;4.01;100.00
51452;BME280;37521;52.020;-1.740;2022-12-29T09:27:43;98193.84;;;4.00;100.00
51452;BME280;37521;52.020;-1.740;2022-12-29T09:30:12;98191.31;;;3.98;100.00
51452;BME280;37521;52.020;-1.740;2022-12-29T09:32:41;98191.13;;;4.03;100.00
51452;BME280;37521;52.020;-1.740;2022-12-29T09:35:13;98198.50;;;4.12;100.00
51452;BME280;37521;52.020;-1.740;2022-12-29T09:37:42;98201.72;;;4.17;100.00
51452;BME280;37521;52.020;-1.740;2022-12-29T09:40:24;98209.41;;;4.20;100.00
51452;BME280;37521;52.020;-1.740;2022-12-29T09:43:03;98204.97;;;4.22;100.00
51452;BME280;37521;52.020;-1.740;2022-12-29T09:45:38;98209.00;;;4.28;100.00
51452;BME280;37521;52.020;-1.740;2022-12-29T09:48:15;98214.78;;;4.34;100.00
51452;BME280;37521;52.020;-1.740;2022-12-29T09:50:49;98215.09;;;4.46;100.00
51452;BME280;37521;52.020;-1.740;2022-12-29T09:53:21;98222.63;;;4.52;100.00
51452;BME280;37521;52.020;-1.740;2022-12-29T09:55:57;98220.78;;;4.54;100.00
51452;BME280;37521;52.020;-1.740;2022-12-29T09:58:28;98221.47;;;4.57;100.00
51452;BME280;37521;52.020;-1.740;2022-12-29T10:01:01;98216.94;;;4.61;100.00
51452;BME280;37521;52.020;-1.740;2022-12-29T10:03:40;98222.94;;;4.63;100.00
51452;BME280;37521;52.020;-1.740;2022-12-29T10:06:17;98227.91;;;4.68;100.00
51452;BME280;37521;52.020;-1.740;2022-12-29T10:08:54;98223.41;;;4.71;100.00
51452;BME280;37521;52.020;-1.740;2022-12-29T10:11:38;98237.00;;;4.78;100.00
51452;BME280;37521;52.020;-1.740;2022-12-29T10:14:25;98240.06;;;4.86;100.00
51452;BME280;37521;52.020;-1.740;2022-12-29T10:17:03;98256.28;;;4.92;100.00
51452;BME280;37521;52.020;-1.740;2022-12-29T10:19:49;98242.88;;;4.99;100.00
51452;BME280;37521;52.020;-1.740;2022-12-29T10:22:32;98249.81;;;5.00;100.00
51452;BME280;37521;52.020;-1.740;2022-12-29T10:25:06;98260.28;;;5.00;100.00
51452;BME280;37521;52.020;-1.740;2022-12-29T10:27:38;98253.53;;;4.96;100.00
51452;BME280;37521;52.020;-1.740;2022-12-29T10:30:11;98267.50;;;4.95;100.00
51452;BME280;37521;52.020;-1.740;2022-12-29T10:32:40;98269.22;;;4.96;100.00
51452;BME280;37521;52.020;-1.740;2022-12-29T10:35:14;98259.28;;;5.02;100.00
51452;BME280;37521;52.020;-1.740;2022-12-29T10:37:49;98265.09;;;5.07;100.00
51452;BME280;37521;52.020;-1.740;2022-12-29T10:40:24;98261.59;;;5.08;100.00
51452;BME280;37521;52.020;-1.740;2022-12-29T10:42:57;98268.41;;;5.11;100.00
51452;BME280;37521;52.020;-1.740;2022-12-29T10:45:29;98278.56;;;5.17;100.00
51452;BME280;37521;52.020;-1.740;2022-12-29T10:48:02;98279.31;;;5.19;100.00
51452;BME280;37521;52.020;-1.740;2022-12-29T10:50:32;98292.41;;;5.19;100.00
51452;BME280;37521;52.020;-1.740;2022-12-29T10:53:04;98285.47;;;5.18;100.00
51452;BME280;37521;52.020;-1.740;2022-12-29T10:55:35;98294.09;;;5.20;100.00
51452;BME280;37521;52.020;-1.740;2022-12-29T10:58:07;98301.72;;;5.25;100.00
51452;BME280;37521;52.020;-1.740;2022-12-29T11:00:39;98296.31;;;5.28;100.00
51452;BME280;37521;52.020;-1.740;2022-12-29T11:03:41;98288.22;;;5.32;100.00
51452;BME280;37521;52.020;-1.740;2022-12-29T11:06:13;98298.53;;;5.35;100.00
51452;BME280;37521;52.020;-1.740;2022-12-29T11:08:53;98290.84;;;5.32;100.00
51452;BME280;37521;52.020;-1.740;2022-12-29T11:11:25;98300.56;;;5.30;100.00
51452;BME280;37521;52.020;-1.740;2022-12-29T11:14:01;98291.00;;;5.29;100.00
51452;BME280;37521;52.020;-1.740;2022-12-29T11:16:32;98288.13;;;5.34;100.00
51452;BME280;37521;52.020;-1.740;2022-12-29T11:19:02;98294.06;;;5.37;100.00
51452;BME280;37521;52.020;-1.740;2022-12-29T11:21:33;98268.97;;;5.33;100.00
51452;BME280;37521;52.020;-1.740;2022-12-29T11:24:20;98292.25;;;5.22;100.00
51452;BME280;37521;52.020;-1.740;2022-12-29T11:26:50;98289.25;;;5.12;100.00
51452;BME280;37521;52.020;-1.740;2022-12-29T11:29:26;98297.41;;;5.06;100.00
51452;BME280;37521;52.020;-1.740;2022-12-29T11:31:56;98305.34;;;5.05;100.00
51452;BME280;37521;52.020;-1.740;2022-12-29T11:34:30;98308.72;;;5.07;100.00
51452;BME280;37521;52.020;-1.740;2022-12-29T11:37:04;98300.13;;;5.05;100.00
51452;BME280;37521;52.020;-1.740;2022-12-29T11:39:37;98291.50;;;5.03;100.00
51452;BME280;37521;52.020;-1.740;2022-12-29T11:42:14;98298.75;;;4.98;100.00
51452;BME280;37521;52.020;-1.740;2022-12-29T11:44:45;98307.81;;;4.90;100.00
51452;BME280;37521;52.020;-1.740;2022-12-29T11:47:23;98315.97;;;4.84;100.00
51452;BME280;37521;52.020;-1.740;2022-12-29T11:49:57;98315.22;;;4.82;100.00
51452;BME280;37521;52.020;-1.740;2022-12-29T11:52:35;98312.50;;;4.84;100.00
51452;BME280;37521;52.020;-1.740;2022-12-29T11:55:17;98311.19;;;4.92;100.00
51452;BME280;37521;52.020;-1.740;2022-12-29T11:57:47;98316.13;;;4.99;100.00
51452;BME280;37521;52.020;-1.740;2022-12-29T12:00:19;98307.13;;;5.04;100.00
51452;BME280;37521;52.020;-1.740;2022-12-29T12:02:54;98305.34;;;5.05;100.00
51452;BME280;37521;52.020;-1.740;2022-12-29T12:05:30;98316.75;;;5.04;100.00
51452;BME280;37521;52.020;-1.740;2022-12-29T12:08:05;98315.97;;;5.02;100.00
51452;BME280;37521;52.020;-1.740;2022-12-29T12:10:39;98314.44;;;4.98;100.00
51452;BME280;37521;52.020;-1.740;2022-12-29T12:13:19;98320.72;;;4.93;100.00
51452;BME280;37521;52.020;-1.740;2022-12-29T12:15:55;98312.88;;;4.93;100.00
51452;BME280;37521;52.020;-1.740;2022-12-29T12:18:34;98313.06;;;4.90;100.00
51452;BME280;37521;52.020;-1.740;2022-12-29T12:21:10;98305.28;;;4.89;100.00
51452;BME280;37521;52.020;-1.740;2022-12-29T12:23:53;98315.81;;;4.87;100.00
51452;BME280;37521;52.020;-1.740;2022-12-29T12:26:31;98332.44;;;4.86;100.00
51452;BME280;37521;52.020;-1.740;2022-12-29T12:29:05;98312.22;;;4.90;100.00
51452;BME280;37521;52.020;-1.740;2022-12-29T12:31:44;98324.28;;;4.92;100.00
51452;BME280;37521;52.020;-1.740;2022-12-29T12:34:17;98311.06;;;4.96;100.00
51452;BME280;37521;52.020;-1.740;2022-12-29T12:37:02;98325.03;;;4.95;100.00
51452;BME280;37521;52.020;-1.740;2022-12-29T12:39:44;98328.56;;;4.93;100.00
51452;BME280;37521;52.020;-1.740;2022-12-29T12:42:25;98326.88;;;4.92;100.00
51452;BME280;37521;52.020;-1.740;2022-12-29T12:45:25;98331.44;;;4.89;100.00
51452;BME280;37521;52.020;-1.740;2022-12-29T12:48:07;98329.91;;;4.85;100.00
51452;BME280;37521;52.020;-1.740;2022-12-29T12:50:48;98343.13;;;4.82;100.00
51452;BME280;37521;52.020;-1.740;2022-12-29T12:53:28;98336.13;;;4.82;100.00
51452;BME280;37521;52.020;-1.740;2022-12-29T12:56:19;98339.66;;;4.81;100.00
51452;BME280;37521;52.020;-1.740;2022-12-29T12:58:55;98350.09;;;4.81;100.00
51452;BME280;37521;52.020;-1.740;2022-12-29T13:01:38;98345.81;;;4.80;100.00
51452;BME280;37521;52.020;-1.740;2022-12-29T13:04:31;98346.72;;;4.79;100.00
51452;BME280;37521;52.020;-1.740;2022-12-29T13:07:10;98343.34;;;4.77;100.00
51452;BME280;37521;52.020;-1.740;2022-12-29T13:09:50;98345.88;;;4.79;100.00
51452;BME280;37521;52.020;-1.740;2022-12-29T13:12:32;98351.03;;;4.80;100.00
51452;BME280;37521;52.020;-1.740;2022-12-29T13:15:10;98350.91;;;4.83;100.00
51452;BME280;37521;52.020;-1.740;2022-12-29T13:17:45;98347.97;;;4.89;100.00
51452;BME280;37521;52.020;-1.740;2022-12-29T13:20:25;98357.72;;;4.86;100.00
51452;BME280;37521;52.020;-1.740;2022-12-29T13:22:59;98372.75;;;4.82;100.00
51452;BME280;37521;52.020;-1.740;2022-12-29T13:25:37;98353.66;;;4.80;100.00
51452;BME280;37521;52.020;-1.740;2022-12-29T13:28:15;98357.09;;;4.81;100.00
51452;BME280;37521;52.020;-1.740;2022-12-29T13:30:50;98351.97;;;4.79;100.00